Time;durP1;ratioP1;P1;durP2;ratioP2;P2;SDS_P1;SDS_P2;PMS_P1;PMS_P2;Temp;Humidity;BMP_temperature;BMP_pressure;BME280_temperature;BME280_humidity;BME280_pressure;Samples;Min_cycle;Max_cycle;Signal;HPM_P1;HPM_P2
2022/02/20 00:01:45;;;;;;;21.27;7.63;;;;;;;;;;4972138;28;20039;-63
2022/02/20 00:04:10;;;;;;;16.92;7.35;;;;;;;;;;4972094;28;20381;-62
2022/02/20 00:06:36;;;;;;;23.75;8.07;;;;;;;;;;4971942;28;20041;-62
2022/02/20 00:09:01;;;;;;;19.85;7.75;;;;;;;;;;4972004;28;20440;-62
2022/02/20 00:11:26;;;;;;;20.75;7.88;;;;;;;;;;4972718;28;20022;-62
2022/02/20 00:13:52;;;;;;;21.30;8.68;;;;;;;;;;4972091;28;20468;-63
2022/02/20 00:16:17;;;;;;;25.98;7.82;;;;;;;;;;4972401;28;20136;-62
2022/02/20 00:18:43;;;;;;;25.05;8.00;;;;;;;;;;4972886;28;20029;-62
2022/02/20 00:21:08;;;;;;;23.00;8.23;;;;;;;;;;4972788;28;20026;-62
2022/02/20 00:23:33;;;;;;;25.65;8.60;;;;;;;;;;4971634;28;20120;-62
2022/02/20 00:25:59;;;;;;;24.98;7.78;;;;;;;;;;4963869;28;20175;-62
2022/02/20 00:28:24;;;;;;;20.83;8.20;;;;;;;;;;4991435;28;20394;-62
2022/02/20 00:30:50;;;;;;;21.15;7.78;;;;;;;;;;4991952;28;20344;-62
2022/02/20 00:33:15;;;;;;;20.75;8.00;;;;;;;;;;4991848;28;20353;-62
2022/02/20 00:35:41;;;;;;;25.13;7.50;;;;;;;;;;4991669;28;20451;-62
2022/02/20 00:38:07;;;;;;;21.15;7.78;;;;;;;;;;4991345;28;20120;-62
2022/02/20 00:40:33;;;;;;;23.15;7.88;;;;;;;;;;4991092;28;20436;-62
2022/02/20 00:42:59;;;;;;;23.15;8.32;;;;;;;;;;4991587;28;20351;-62
2022/02/20 00:45:25;;;;;;;21.60;7.40;;;;;;;;;;4992333;28;20340;-62
2022/02/20 00:47:51;;;;;;;23.67;8.10;;;;;;;;;;4991482;28;20375;-62
2022/02/20 00:50:16;;;;;;;21.65;6.75;;;;;;;;;;4991478;28;20494;-62
2022/02/20 00:52:41;;;;;;;21.92;8.55;;;;;;;;;;4991146;28;20059;-62
2022/02/20 00:55:07;;;;;;;19.35;8.15;;;;;;;;;;4991337;28;20386;-62
2022/02/20 00:57:33;;;;;;;25.50;7.88;;;;;;;;;;4992547;28;20359;-63
2022/02/20 00:59:58;;;;;;;21.65;8.00;;;;;;;;;;4987733;28;20357;-62
2022/02/20 01:02:23;;;;;;;23.30;7.90;;;;;;;;;;4961824;28;20421;-62
2022/02/20 01:04:49;;;;;;;22.50;8.25;;;;;;;;;;4953139;28;20072;-62
2022/02/20 01:07:14;;;;;;;20.77;8.55;;;;;;;;;;4951070;28;20417;-62
2022/02/20 01:09:39;;;;;;;23.75;7.97;;;;;;;;;;4951211;28;20433;-64
2022/02/20 01:12:05;;;;;;;23.40;8.13;;;;;;;;;;4953448;28;20049;-62
2022/02/20 01:14:30;;;;;;;25.27;8.48;;;;;;;;;;4952420;28;20471;-62
2022/02/20 01:16:56;;;;;;;23.13;8.48;;;;;;;;;;4951525;28;20536;-62
2022/02/20 01:19:21;;;;;;;23.17;7.43;;;;;;;;;;4951437;28;21224;-62
2022/02/20 01:21:47;;;;;;;26.80;8.45;;;;;;;;;;4952482;28;20306;-62
2022/02/20 01:24:12;;;;;;;19.50;7.18;;;;;;;;;;4951474;28;20384;-62
2022/02/20 01:26:37;;;;;;;21.67;8.02;;;;;;;;;;4951967;28;20540;-62
2022/02/20 01:29:03;;;;;;;23.20;8.32;;;;;;;;;;4951324;28;20033;-66
2022/02/20 01:31:28;;;;;;;21.80;8.00;;;;;;;;;;4951247;28;20545;-61
2022/02/20 01:33:54;;;;;;;22.88;8.50;;;;;;;;;;4951161;28;20429;-62
2022/02/20 01:36:19;;;;;;;20.08;7.80;;;;;;;;;;4951041;28;20433;-62
2022/02/20 01:38:44;;;;;;;20.95;7.93;;;;;;;;;;4951023;28;20431;-62
2022/02/20 01:41:10;;;;;;;26.52;9.63;;;;;;;;;;4950842;28;20441;-62
2022/02/20 01:43:35;;;;;;;19.13;7.90;;;;;;;;;;4950829;28;20315;-62
2022/02/20 01:46:00;;;;;;;20.80;7.63;;;;;;;;;;4950969;28;20426;-62
2022/02/20 01:48:26;;;;;;;21.25;7.90;;;;;;;;;;4951037;28;20034;-62
2022/02/20 01:50:51;;;;;;;21.85;7.32;;;;;;;;;;4950830;28;20382;-62
2022/02/20 01:53:18;;;;;;;27.48;8.27;;;;;;;;;;4950536;28;20516;-62
2022/02/20 01:55:43;;;;;;;17.92;7.50;;;;;;;;;;4951785;28;20410;-61
2022/02/20 01:58:09;;;;;;;20.83;8.57;;;;;;;;;;4950724;28;20097;-62
2022/02/20 02:00:34;;;;;;;20.10;7.13;;;;;;;;;;4950936;28;20397;-62
2022/02/20 02:03:00;;;;;;;25.00;7.75;;;;;;;;;;4950527;28;20456;-62
2022/02/20 02:05:27;;;;;;;17.33;6.78;;;;;;;;;;4950047;28;20483;-62
2022/02/20 02:07:52;;;;;;;23.08;7.95;;;;;;;;;;4950778;28;20503;-62
2022/02/20 02:10:17;;;;;;;25.42;8.60;;;;;;;;;;4950484;28;20488;-62
2022/02/20 02:12:43;;;;;;;20.73;8.57;;;;;;;;;;4950730;28;20425;-61
2022/02/20 02:15:10;;;;;;;20.20;8.80;;;;;;;;;;4950387;28;20430;-62
2022/02/20 02:17:36;;;;;;;23.98;8.15;;;;;;;;;;4950442;28;20417;-62
2022/02/20 02:20:03;;;;;;;21.35;7.57;;;;;;;;;;4952378;28;20528;-62
2022/02/20 02:22:29;;;;;;;19.80;7.20;;;;;;;;;;4950211;28;20115;-62
2022/02/20 02:24:56;;;;;;;21.38;8.30;;;;;;;;;;4950074;28;20022;-63
2022/02/20 02:27:22;;;;;;;23.33;8.35;;;;;;;;;;4951995;28;20400;-62
2022/02/20 02:29:48;;;;;;;21.17;8.23;;;;;;;;;;4950597;28;20401;-62
2022/02/20 02:32:14;;;;;;;22.92;8.98;;;;;;;;;;4950366;28;20049;-62
2022/02/20 02:34:40;;;;;;;24.90;8.60;;;;;;;;;;4950150;28;20029;-62
2022/02/20 02:37:06;;;;;;;19.73;8.07;;;;;;;;;;4949989;28;20449;-62
2022/02/20 02:39:31;;;;;;;23.27;7.93;;;;;;;;;;4948293;28;20421;-62
2022/02/20 02:41:57;;;;;;;26.23;8.48;;;;;;;;;;4949818;28;20345;-62
2022/02/20 02:44:22;;;;;;;29.90;8.40;;;;;;;;;;4950352;28;20389;-62
2022/02/20 02:46:47;;;;;;;21.33;8.68;;;;;;;;;;4950013;28;20392;-62
2022/02/20 02:49:13;;;;;;;24.90;8.45;;;;;;;;;;4951238;28;20437;-61
2022/02/20 02:51:38;;;;;;;21.48;8.00;;;;;;;;;;4950339;28;20341;-62
2022/02/20 02:54:11;;;;;;;20.27;8.52;;;;;;;;;;4950013;28;20420;-62
2022/02/20 02:56:37;;;;;;;26.88;8.80;;;;;;;;;;4951025;28;20434;-62
2022/02/20 02:59:03;;;;;;;22.55;8.85;;;;;;;;;;4950005;28;20377;-62
2022/02/20 03:01:29;;;;;;;22.50;8.45;;;;;;;;;;4949878;28;20380;-62
2022/02/20 03:03:54;;;;;;;25.40;8.43;;;;;;;;;;4950625;28;20029;-62
2022/02/20 03:06:20;;;;;;;16.52;6.13;;;;;;;;;;4953370;28;20532;-62
2022/02/20 03:08:45;;;;;;;20.33;7.97;;;;;;;;;;4954194;28;20477;-61
2022/02/20 03:11:11;;;;;;;22.60;8.02;;;;;;;;;;4953531;28;20104;-62
2022/02/20 03:13:38;;;;;;;25.45;9.30;;;;;;;;;;4953690;28;20507;-62
2022/02/20 03:16:04;;;;;;;19.80;7.75;;;;;;;;;;4953543;28;20437;-61
2022/02/20 03:18:31;;;;;;;21.40;7.80;;;;;;;;;;4953686;28;20677;-62
2022/02/20 03:20:58;;;;;;;30.08;9.10;;;;;;;;;;4953303;28;20516;-62
2022/02/20 03:23:23;;;;;;;21.58;7.93;;;;;;;;;;4953683;28;20057;-62
2022/02/20 03:25:49;;;;;;;20.40;7.88;;;;;;;;;;4953440;28;20021;-62
2022/02/20 03:28:14;;;;;;;23.77;8.27;;;;;;;;;;4953563;28;20417;-62
2022/02/20 03:30:40;;;;;;;20.30;7.57;;;;;;;;;;4953349;28;20372;-62
2022/02/20 03:33:05;;;;;;;25.90;8.23;;;;;;;;;;4955629;28;20426;-62
2022/02/20 03:35:31;;;;;;;21.17;7.85;;;;;;;;;;4952831;28;20491;-62
2022/02/20 03:37:56;;;;;;;20.73;8.15;;;;;;;;;;4953696;28;20124;-62
2022/02/20 03:40:22;;;;;;;19.65;7.43;;;;;;;;;;4938780;28;20372;-62
2022/02/20 03:42:47;;;;;;;25.48;8.35;;;;;;;;;;4962535;28;20499;-62
2022/02/20 03:45:12;;;;;;;24.38;8.05;;;;;;;;;;4953098;28;20468;-62
2022/02/20 03:47:38;;;;;;;20.00;8.25;;;;;;;;;;4954385;28;20034;-61
2022/02/20 03:50:04;;;;;;;21.27;8.60;;;;;;;;;;4954481;28;20433;-62
2022/02/20 03:52:31;;;;;;;20.90;8.70;;;;;;;;;;4953188;28;20447;-62
2022/02/20 03:54:57;;;;;;;20.13;8.23;;;;;;;;;;4953101;28;20368;-62
2022/02/20 03:57:22;;;;;;;19.30;7.20;;;;;;;;;;4953061;28;20037;-62
2022/02/20 03:59:48;;;;;;;18.42;7.50;;;;;;;;;;4953037;28;20460;-62
2022/02/20 04:02:13;;;;;;;18.55;7.47;;;;;;;;;;4952669;28;20449;-62
2022/02/20 04:04:38;;;;;;;18.67;7.18;;;;;;;;;;4953498;28;20483;-62
2022/02/20 04:07:04;;;;;;;22.45;7.57;;;;;;;;;;4952288;28;20372;-62
2022/02/20 04:09:29;;;;;;;19.00;6.70;;;;;;;;;;4952400;28;20100;-62
2022/02/20 04:11:54;;;;;;;19.10;7.47;;;;;;;;;;4954624;28;20443;-61
2022/02/20 04:14:20;;;;;;;21.15;8.00;;;;;;;;;;4953012;28;20433;-62
2022/02/20 04:16:45;;;;;;;19.77;7.72;;;;;;;;;;4952959;28;20443;-62
2022/02/20 04:19:10;;;;;;;22.23;7.60;;;;;;;;;;4953821;28;20084;-62
2022/02/20 04:21:36;;;;;;;22.27;8.02;;;;;;;;;;4952630;28;20375;-62
2022/02/20 04:24:01;;;;;;;18.15;7.03;;;;;;;;;;4952711;28;20376;-62
2022/02/20 04:26:26;;;;;;;15.80;7.30;;;;;;;;;;4951432;28;20426;-62
2022/02/20 04:28:52;;;;;;;24.27;8.27;;;;;;;;;;4952517;28;20415;-62
2022/02/20 04:31:18;;;;;;;20.55;7.55;;;;;;;;;;4952473;28;20326;-62
2022/02/20 04:33:45;;;;;;;20.70;7.03;;;;;;;;;;4952745;28;20392;-63
2022/02/20 04:36:10;;;;;;;22.40;7.47;;;;;;;;;;4952347;28;20049;-62
2022/02/20 04:38:36;;;;;;;23.45;7.78;;;;;;;;;;4952444;28;20420;-62
2022/02/20 04:41:01;;;;;;;17.58;7.18;;;;;;;;;;4952111;28;20487;-62
2022/02/20 04:43:27;;;;;;;14.55;6.30;;;;;;;;;;4952340;28;20437;-62
2022/02/20 04:45:52;;;;;;;19.55;7.38;;;;;;;;;;4951886;28;20445;-61
2022/02/20 04:48:18;;;;;;;18.13;7.63;;;;;;;;;;4951808;28;20364;-62
2022/02/20 04:50:44;;;;;;;18.25;6.40;;;;;;;;;;4951937;28;20030;-62
2022/02/20 04:53:09;;;;;;;16.90;6.43;;;;;;;;;;4952694;28;20054;-62
2022/02/20 04:55:34;;;;;;;19.65;6.55;;;;;;;;;;4951649;28;20413;-62
2022/02/20 04:58:00;;;;;;;15.68;6.43;;;;;;;;;;4952188;28;20148;-62
2022/02/20 05:00:25;;;;;;;14.85;5.85;;;;;;;;;;4953149;28;20316;-62
2022/02/20 05:02:50;;;;;;;12.43;6.40;;;;;;;;;;4951788;28;20384;-62
2022/02/20 05:05:16;;;;;;;19.55;7.07;;;;;;;;;;4951845;28;20366;-62
2022/02/20 05:07:41;;;;;;;16.42;6.80;;;;;;;;;;4951481;28;20072;-62
2022/02/20 05:10:07;;;;;;;18.98;7.18;;;;;;;;;;4951741;28;20352;-61
2022/02/20 05:12:32;;;;;;;19.95;6.35;;;;;;;;;;4966650;28;20034;-62
2022/02/20 05:14:57;;;;;;;15.63;6.25;;;;;;;;;;4951790;28;20372;-61
2022/02/20 05:17:22;;;;;;;14.75;5.60;;;;;;;;;;4951510;28;20433;-62
2022/02/20 05:19:48;;;;;;;19.77;7.00;;;;;;;;;;4951565;28;20056;-62
2022/02/20 05:22:13;;;;;;;16.67;6.25;;;;;;;;;;4952224;28;20418;-62
2022/02/20 05:24:38;;;;;;;19.70;6.28;;;;;;;;;;4951427;28;20535;-61
2022/02/20 05:27:04;;;;;;;21.23;6.95;;;;;;;;;;4951401;28;20612;-62
2022/02/20 05:29:29;;;;;;;15.60;6.43;;;;;;;;;;4951143;28;20444;-61
2022/02/20 05:31:54;;;;;;;22.83;7.50;;;;;;;;;;4951099;28;20326;-61
2022/02/20 05:34:20;;;;;;;17.20;6.22;;;;;;;;;;4950891;28;20456;-62
2022/02/20 05:36:45;;;;;;;15.70;6.57;;;;;;;;;;4951011;28;20384;-62
2022/02/20 05:39:10;;;;;;;19.67;7.53;;;;;;;;;;4950942;28;20444;-62
2022/02/20 05:41:36;;;;;;;18.20;7.60;;;;;;;;;;4951085;28;20612;-62
2022/02/20 05:44:01;;;;;;;19.60;7.78;;;;;;;;;;4950971;28;20449;-62
2022/02/20 05:46:26;;;;;;;21.25;6.95;;;;;;;;;;4951727;28;20445;-62
2022/02/20 05:48:52;;;;;;;17.77;7.22;;;;;;;;;;4951232;28;20502;-62
2022/02/20 05:51:17;;;;;;;16.38;6.57;;;;;;;;;;4952039;28;20160;-62
2022/02/20 05:53:42;;;;;;;15.95;6.22;;;;;;;;;;4951081;28;20344;-62
2022/02/20 05:56:08;;;;;;;15.02;6.70;;;;;;;;;;4950638;28;20333;-61
2022/02/20 05:58:34;;;;;;;16.52;6.75;;;;;;;;;;4950398;28;20361;-62
2022/02/20 06:00:59;;;;;;;17.02;6.85;;;;;;;;;;4951640;28;20388;-63
2022/02/20 06:03:25;;;;;;;15.27;6.45;;;;;;;;;;4950592;28;20025;-61
2022/02/20 06:05:50;;;;;;;18.70;6.93;;;;;;;;;;4949978;28;20352;-62
2022/02/20 06:08:16;;;;;;;16.80;6.70;;;;;;;;;;4951504;28;20464;-62
2022/02/20 06:10:41;;;;;;;16.75;6.00;;;;;;;;;;4950511;28;20429;-62
2022/02/20 06:13:07;;;;;;;15.93;5.65;;;;;;;;;;4950785;28;20488;-62
2022/02/20 06:15:32;;;;;;;15.73;5.68;;;;;;;;;;4950687;28;20421;-62
2022/02/20 06:17:58;;;;;;;14.98;5.28;;;;;;;;;;4950509;28;20464;-62
2022/02/20 06:20:24;;;;;;;14.25;5.60;;;;;;;;;;4948865;28;20033;-62
2022/02/20 06:22:49;;;;;;;20.63;6.50;;;;;;;;;;4951967;28;20335;-62
2022/02/20 06:25:15;;;;;;;15.35;5.75;;;;;;;;;;4951085;28;20392;-63
2022/02/20 06:27:40;;;;;;;23.52;6.82;;;;;;;;;;4950287;28;20353;-62
2022/02/20 06:30:06;;;;;;;14.95;6.03;;;;;;;;;;4950411;28;20424;-62
2022/02/20 06:32:31;;;;;;;16.92;6.40;;;;;;;;;;4949636;28;20127;-62
2022/02/20 06:34:57;;;;;;;16.38;6.10;;;;;;;;;;4950986;28;20475;-62
2022/02/20 06:37:22;;;;;;;17.48;6.10;;;;;;;;;;4949786;28;20451;-62
2022/02/20 06:39:48;;;;;;;17.88;6.82;;;;;;;;;;4949780;28;20421;-61
2022/02/20 06:42:14;;;;;;;18.88;6.22;;;;;;;;;;4951773;28;20029;-62
2022/02/20 06:44:39;;;;;;;13.45;5.95;;;;;;;;;;4950933;28;20372;-62
2022/02/20 06:47:05;;;;;;;14.40;6.00;;;;;;;;;;4948364;28;20349;-62
2022/02/20 06:49:30;;;;;;;15.25;5.88;;;;;;;;;;4950563;28;20117;-62
2022/02/20 06:51:55;;;;;;;22.67;6.63;;;;;;;;;;4949818;28;20541;-62
2022/02/20 06:54:21;;;;;;;13.00;5.13;;;;;;;;;;4951589;28;20031;-62
2022/02/20 06:56:46;;;;;;;17.48;4.97;;;;;;;;;;4950219;28;20448;-62
2022/02/20 06:59:11;;;;;;;15.50;5.82;;;;;;;;;;4950112;28;20447;-62
2022/02/20 07:01:37;;;;;;;14.93;4.63;;;;;;;;;;4950031;28;20421;-62
2022/02/20 07:04:05;;;;;;;12.65;5.10;;;;;;;;;;4950872;28;20061;-62
2022/02/20 07:06:30;;;;;;;11.38;4.25;;;;;;;;;;4950079;28;20464;-62
2022/02/20 07:08:55;;;;;;;15.73;4.93;;;;;;;;;;4949148;28;20387;-62
2022/02/20 07:11:21;;;;;;;14.32;4.88;;;;;;;;;;4949760;28;20429;-63
2022/02/20 07:13:47;;;;;;;16.02;4.75;;;;;;;;;;4949874;28;20045;-64
2022/02/20 07:16:12;;;;;;;95.43;29.58;;;;;;;;;;4949674;28;20414;-64
2022/02/20 07:18:37;;;;;;;125.45;37.15;;;;;;;;;;4950781;28;20696;-63
2022/02/20 07:21:03;;;;;;;63.85;18.88;;;;;;;;;;4951339;28;20539;-63
2022/02/20 07:23:28;;;;;;;54.03;16.73;;;;;;;;;;4967636;28;20344;-62
2022/02/20 07:25:53;;;;;;;37.45;13.13;;;;;;;;;;4968035;28;20321;-63
2022/02/20 07:28:18;;;;;;;33.60;12.25;;;;;;;;;;4969954;28;20320;-63
2022/02/20 07:30:44;;;;;;;34.65;11.13;;;;;;;;;;4968848;28;20432;-63
2022/02/20 07:33:12;;;;;;;22.95;9.48;;;;;;;;;;4969189;28;20449;-65
2022/02/20 07:35:38;;;;;;;27.92;9.70;;;;;;;;;;4969540;28;20408;-63
2022/02/20 07:38:05;;;;;;;33.53;10.23;;;;;;;;;;4968696;28;20372;-63
2022/02/20 07:40:30;;;;;;;30.63;10.43;;;;;;;;;;4969079;28;20318;-63
2022/02/20 07:42:56;;;;;;;31.35;9.95;;;;;;;;;;4969131;28;20380;-63
2022/02/20 07:45:23;;;;;;;31.02;9.25;;;;;;;;;;4970058;28;20472;-63
2022/02/20 07:47:59;;;;;;;24.83;9.32;;;;;;;;;;4969215;28;20465;-63
2022/02/20 07:50:33;;;;;;;23.02;9.63;;;;;;;;;;4971145;28;20475;-63
2022/02/20 07:52:58;;;;;;;25.45;9.77;;;;;;;;;;4972712;28;20361;-63
2022/02/20 07:55:24;;;;;;;27.05;10.52;;;;;;;;;;4972806;28;20336;-63
2022/02/20 07:57:50;;;;;;;33.55;16.48;;;;;;;;;;4972623;28;20059;-63
2022/02/20 08:00:18;;;;;;;28.15;11.63;;;;;;;;;;4972732;28;20413;-63
2022/02/20 08:02:44;;;;;;;30.85;13.23;;;;;;;;;;4972291;28;20476;-64
2022/02/20 08:05:09;;;;;;;33.65;13.25;;;;;;;;;;4972918;28;20499;-62
2022/02/20 08:07:35;;;;;;;26.45;10.02;;;;;;;;;;4971954;28;20357;-63
2022/02/20 08:10:00;;;;;;;31.15;10.75;;;;;;;;;;4972072;28;20443;-63
2022/02/20 08:12:26;;;;;;;27.20;9.93;;;;;;;;;;4972130;28;20500;-64
2022/02/20 08:14:51;;;;;;;22.70;10.25;;;;;;;;;;4972719;28;20380;-63
2022/02/20 08:17:16;;;;;;;32.72;10.15;;;;;;;;;;4971690;28;20347;-63
2022/02/20 08:19:42;;;;;;;18.40;8.20;;;;;;;;;;4972286;28;20460;-63
2022/02/20 08:22:07;;;;;;;22.75;8.93;;;;;;;;;;4972330;28;20425;-63
2022/02/20 08:24:33;;;;;;;23.45;9.00;;;;;;;;;;4972087;28;20376;-63
2022/02/20 08:26:59;;;;;;;21.20;8.20;;;;;;;;;;4972464;28;20356;-64
2022/02/20 08:29:24;;;;;;;19.98;7.45;;;;;;;;;;4972448;28;20340;-63
2022/02/20 08:31:50;;;;;;;20.45;8.23;;;;;;;;;;4971628;28;20445;-64
2022/02/20 08:34:15;;;;;;;20.85;7.93;;;;;;;;;;4971921;28;20064;-63
2022/02/20 08:36:40;;;;;;;22.05;8.35;;;;;;;;;;4972053;28;20446;-63
2022/02/20 08:39:06;;;;;;;18.25;7.25;;;;;;;;;;4972846;28;20356;-63
2022/02/20 08:41:31;;;;;;;19.95;6.35;;;;;;;;;;4969926;28;20384;-63
2022/02/20 08:43:57;;;;;;;21.13;6.93;;;;;;;;;;4971559;28;20407;-63
2022/02/20 08:46:22;;;;;;;18.27;7.25;;;;;;;;;;4971900;28;20409;-63
2022/02/20 08:48:47;;;;;;;13.73;5.95;;;;;;;;;;4971015;28;20424;-63
2022/02/20 08:51:13;;;;;;;17.88;6.57;;;;;;;;;;4972331;28;20337;-63
2022/02/20 08:53:38;;;;;;;15.98;7.88;;;;;;;;;;4971200;28;20335;-63
2022/02/20 08:56:06;;;;;;;17.95;7.07;;;;;;;;;;4971806;28;20433;-63
2022/02/20 08:58:31;;;;;;;16.08;7.15;;;;;;;;;;4971593;28;20439;-63
2022/02/20 09:00:57;;;;;;;15.90;6.20;;;;;;;;;;4971018;28;20333;-63
2022/02/20 09:03:22;;;;;;;15.10;6.95;;;;;;;;;;4970804;28;20362;-64
2022/02/20 09:05:47;;;;;;;14.15;6.20;;;;;;;;;;4970715;28;20455;-63
2022/02/20 09:08:12;;;;;;;15.55;6.55;;;;;;;;;;4973438;28;20413;-63
2022/02/20 09:10:40;;;;;;;15.77;5.63;;;;;;;;;;4971013;28;20483;-63
2022/02/20 09:13:05;;;;;;;13.38;5.15;;;;;;;;;;4970985;28;20452;-63
2022/02/20 09:15:31;;;;;;;15.75;5.57;;;;;;;;;;4971457;28;20452;-63
2022/02/20 09:17:56;;;;;;;17.02;6.18;;;;;;;;;;4971068;28;20424;-63
2022/02/20 09:20:21;;;;;;;11.35;4.90;;;;;;;;;;4970641;28;20120;-63
2022/02/20 09:22:47;;;;;;;12.27;5.30;;;;;;;;;;4973097;28;20408;-64
2022/02/20 09:25:12;;;;;;;12.90;5.03;;;;;;;;;;4970527;28;20354;-63
2022/02/20 09:27:37;;;;;;;11.13;5.00;;;;;;;;;;4970799;28;20432;-62
2022/02/20 09:30:03;;;;;;;12.85;5.63;;;;;;;;;;4970850;28;20341;-63
2022/02/20 09:32:28;;;;;;;13.02;4.78;;;;;;;;;;4971033;28;20416;-63
2022/02/20 09:34:54;;;;;;;12.25;5.65;;;;;;;;;;4970768;28;20103;-63
2022/02/20 09:37:20;;;;;;;12.98;5.45;;;;;;;;;;4970835;28;20391;-62
2022/02/20 09:39:46;;;;;;;12.60;5.05;;;;;;;;;;4970506;28;20441;-64
2022/02/20 09:42:14;;;;;;;13.02;5.28;;;;;;;;;;4970317;28;20476;-63
2022/02/20 09:44:39;;;;;;;17.38;5.68;;;;;;;;;;4970538;28;20437;-62
2022/02/20 09:47:05;;;;;;;9.70;4.55;;;;;;;;;;4971060;28;20446;-63
2022/02/20 09:49:30;;;;;;;12.82;5.43;;;;;;;;;;4970676;28;20365;-63
2022/02/20 09:51:56;;;;;;;10.27;4.85;;;;;;;;;;4969765;28;20475;-62
2022/02/20 09:54:22;;;;;;;13.05;4.80;;;;;;;;;;4970268;28;20318;-63
2022/02/20 09:56:47;;;;;;;15.00;4.93;;;;;;;;;;4970366;28;20321;-63
2022/02/20 09:59:13;;;;;;;14.77;5.10;;;;;;;;;;4970021;28;20495;-63
2022/02/20 10:02:08;;;;;;;13.45;5.13;;;;;;;;;;4970248;28;20329;-63
2022/02/20 10:04:44;;;;;;;9.35;4.43;;;;;;;;;;4968551;28;20384;-63
2022/02/20 10:07:33;;;;;;;11.23;4.72;;;;;;;;;;4969528;28;20127;-63
2022/02/20 10:09:59;;;;;;;;;;;;;;;;;;4970421;28;20425;-62
2022/02/20 10:12:29;;;;;;;7.15;3.78;;;;;;;;;;4970140;28;20430;-63
2022/02/20 10:14:54;;;;;;;11.60;5.60;;;;;;;;;;4970054;28;20091;-64
2022/02/20 10:17:27;;;;;;;11.43;5.22;;;;;;;;;;4970268;28;20559;-62
2022/02/20 10:20:01;;;;;;;13.38;5.30;;;;;;;;;;4971210;28;20472;-63
2022/02/20 10:22:36;;;;;;;12.60;4.93;;;;;;;;;;4970021;28;20456;-63
2022/02/20 10:25:11;;;;;;;11.95;4.53;;;;;;;;;;4970261;28;20460;-63
2022/02/20 10:27:47;;;;;;;11.88;5.50;;;;;;;;;;4969601;28;20482;-63
2022/02/20 10:30:13;;;;;;;13.75;5.55;;;;;;;;;;4969462;28;20472;-63
2022/02/20 10:32:39;;;;;;;12.43;5.40;;;;;;;;;;4969475;28;20388;-62
2022/02/20 10:35:15;;;;;;;11.00;5.28;;;;;;;;;;4969746;28;20099;-63
2022/02/20 10:37:42;;;;;;;12.27;5.60;;;;;;;;;;4970718;28;20439;-63
2022/02/20 10:40:25;;;;;;;14.10;5.35;;;;;;;;;;4970856;28;20445;-63
2022/02/20 10:42:58;;;;;;;11.10;5.15;;;;;;;;;;4969728;28;20439;-63
2022/02/20 10:45:26;;;;;;;12.70;5.47;;;;;;;;;;4970037;28;20336;-62
2022/02/20 10:47:52;;;;;;;10.52;4.82;;;;;;;;;;4969816;28;20344;-63
2022/02/20 10:50:22;;;;;;;13.63;5.97;;;;;;;;;;4969359;28;20325;-63
2022/02/20 10:53:14;;;;;;;10.80;5.15;;;;;;;;;;4970026;28;20445;-62
2022/02/20 10:55:44;;;;;;;11.10;5.20;;;;;;;;;;4970142;28;20455;-63
2022/02/20 10:58:11;;;;;;;10.13;5.00;;;;;;;;;;4968946;28;20095;-63
2022/02/20 11:00:45;;;;;;;12.73;5.18;;;;;;;;;;4969421;28;20464;-63
2022/02/20 11:03:12;;;;;;;12.30;4.80;;;;;;;;;;4969029;28;20425;-63
2022/02/20 11:05:38;;;;;;;9.77;4.72;;;;;;;;;;4969026;28;20618;-63
2022/02/20 11:08:05;;;;;;;10.70;4.40;;;;;;;;;;4969403;28;20397;-62
2022/02/20 11:10:30;;;;;;;10.85;4.07;;;;;;;;;;4969105;28;20372;-63
2022/02/20 11:12:56;;;;;;;7.90;3.97;;;;;;;;;;4968459;28;20442;-62
2022/02/20 11:15:21;;;;;;;12.20;4.68;;;;;;;;;;4968232;28;20340;-63
2022/02/20 11:17:55;;;;;;;12.55;4.80;;;;;;;;;;4967830;28;20025;-63
2022/02/20 11:20:22;;;;;;;8.45;4.80;;;;;;;;;;4967629;28;20336;-63
2022/02/20 11:22:50;;;;;;;7.72;4.25;;;;;;;;;;4969503;28;20435;-63
2022/02/20 11:25:16;;;;;;;7.53;4.07;;;;;;;;;;4971703;28;20432;-62
2022/02/20 11:27:43;;;;;;;7.35;3.90;;;;;;;;;;4972312;28;20322;-63
2022/02/20 11:30:09;;;;;;;9.93;4.50;;;;;;;;;;4972677;28;20436;-63
2022/02/20 11:32:38;;;;;;;10.02;3.75;;;;;;;;;;4973570;28;20318;-63
2022/02/20 11:35:09;;;;;;;10.00;3.63;;;;;;;;;;4972998;28;20436;-63
2022/02/20 11:37:49;;;;;;;8.02;3.67;;;;;;;;;;4972622;28;20056;-63
2022/02/20 11:40:16;;;;;;;15.07;4.15;;;;;;;;;;4974635;28;20432;-63
2022/02/20 11:43:00;;;;;;;8.98;4.18;;;;;;;;;;4972418;28;20508;-63
2022/02/20 11:45:32;;;;;;;8.75;3.58;;;;;;;;;;4972841;28;20524;-63
2022/02/20 11:48:05;;;;;;;9.25;3.90;;;;;;;;;;4973704;28;20515;-63
2022/02/20 11:50:58;;;;;;;10.38;4.32;;;;;;;;;;4974041;28;20448;-63
2022/02/20 11:53:27;;;;;;;8.93;3.65;;;;;;;;;;4949764;28;20508;-63
2022/02/20 11:56:05;;;;;;;9.77;3.78;;;;;;;;;;4972182;28;20361;-63
2022/02/20 11:58:31;;;;;;;9.07;4.13;;;;;;;;;;4972376;28;20333;-63
2022/02/20 12:00:59;;;;;;;8.80;4.05;;;;;;;;;;4974041;28;20333;-63
2022/02/20 12:03:32;;;;;;;10.15;3.58;;;;;;;;;;4972652;28;20471;-63
2022/02/20 12:06:14;;;;;;;10.55;4.60;;;;;;;;;;4970622;28;20436;-63
2022/02/20 12:08:44;;;;;;;12.15;4.47;;;;;;;;;;4972429;28;20344;-63
2022/02/20 12:11:13;;;;;;;9.70;4.30;;;;;;;;;;4972322;28;20443;-63
2022/02/20 12:13:44;;;;;;;;;;;;;;;;;;4972749;28;20396;-63
2022/02/20 12:16:22;;;;;;;9.55;3.72;;;;;;;;;;4972191;28;20300;-63
2022/02/20 12:19:21;;;;;;;8.40;4.35;;;;;;;;;;4971824;28;20322;-63
2022/02/20 12:22:01;;;;;;;9.32;4.07;;;;;;;;;;4972899;28;20332;-63
2022/02/20 12:24:47;;;;;;;9.27;4.57;;;;;;;;;;4971744;28;20397;-63
2022/02/20 12:27:25;;;;;;;11.07;4.53;;;;;;;;;;4972322;28;20116;-63
2022/02/20 12:29:53;;;;;;;9.82;4.47;;;;;;;;;;4971669;28;20445;-63
2022/02/20 12:32:26;;;;;;;12.02;4.80;;;;;;;;;;4971576;28;20421;-64
2022/02/20 12:35:00;;;;;;;8.70;3.95;;;;;;;;;;4971990;28;20029;-63
2022/02/20 12:37:39;;;;;;;8.88;4.20;;;;;;;;;;4971957;28;20555;-62
2022/02/20 12:40:08;;;;;;;11.55;3.80;;;;;;;;;;4971947;28;20329;-64
2022/02/20 12:42:39;;;;;;;;;;;;;;;;;;4971855;28;20408;-63
2022/02/20 12:45:17;;;;;;;14.43;4.75;;;;;;;;;;4971904;28;19923;-64
2022/02/20 12:47:47;;;;;;;13.30;4.87;;;;;;;;;;4971663;28;20491;-63
2022/02/20 12:50:13;;;;;;;11.30;4.43;;;;;;;;;;4971553;28;20425;-63
2022/02/20 12:52:40;;;;;;;11.88;4.40;;;;;;;;;;4971270;28;20377;-64
2022/02/20 12:55:06;;;;;;;12.40;4.78;;;;;;;;;;4971258;28;20480;-64
2022/02/20 12:57:36;;;;;;;12.43;5.43;;;;;;;;;;4973229;28;20429;-63
2022/02/20 13:00:07;;;;;;;10.23;4.72;;;;;;;;;;4971286;28;20388;-63
2022/02/20 13:02:38;;;;;;;11.82;5.43;;;;;;;;;;4970905;28;20429;-63
2022/02/20 13:05:16;;;;;;;12.80;4.85;;;;;;;;;;4971210;28;20393;-63
2022/02/20 13:07:44;;;;;;;11.52;5.35;;;;;;;;;;4970950;28;20318;-63
2022/02/20 13:10:14;;;;;;;12.40;5.45;;;;;;;;;;4972638;28;20452;-63
2022/02/20 13:12:39;;;;;;;16.60;6.28;;;;;;;;;;4971276;28;20339;-63
2022/02/20 13:15:09;;;;;;;15.70;6.30;;;;;;;;;;4971042;28;20333;-63
2022/02/20 13:17:52;;;;;;;19.17;7.32;;;;;;;;;;4971903;28;20427;-63
2022/02/20 13:20:39;;;;;;;15.65;5.97;;;;;;;;;;4971264;28;20404;-63
2022/02/20 13:23:19;;;;;;;14.68;6.07;;;;;;;;;;4969569;28;20380;-63
2022/02/20 13:25:45;;;;;;;12.80;5.70;;;;;;;;;;4971093;28;20445;-63
2022/02/20 13:28:16;;;;;;;11.90;5.07;;;;;;;;;;4970502;28;20060;-63
2022/02/20 13:30:42;;;;;;;12.15;5.28;;;;;;;;;;4970723;28;20028;-63
2022/02/20 13:33:16;;;;;;;13.32;5.07;;;;;;;;;;4970983;28;20129;-63
2022/02/20 13:35:43;;;;;;;11.57;5.28;;;;;;;;;;4970388;28;20391;-64
2022/02/20 13:38:23;;;;;;;14.82;5.05;;;;;;;;;;4970796;28;20427;-63
2022/02/20 13:40:50;;;;;;;10.25;4.85;;;;;;;;;;4970223;28;20491;-64
2022/02/20 13:43:16;;;;;;;11.90;5.35;;;;;;;;;;4970707;28;20461;-63
2022/02/20 13:45:54;;;;;;;10.40;4.55;;;;;;;;;;4970174;28;20421;-63
2022/02/20 13:48:40;;;;;;;11.63;4.90;;;;;;;;;;4969834;28;20476;-63
2022/02/20 13:51:20;;;;;;;9.13;4.78;;;;;;;;;;4970485;28;20352;-63
2022/02/20 13:54:05;;;;;;;9.63;4.65;;;;;;;;;;4971811;28;20507;-64
2022/02/20 13:56:51;;;;;;;13.02;5.05;;;;;;;;;;4970439;28;20332;-63
2022/02/20 13:59:22;;;;;;;12.35;4.15;;;;;;;;;;4970170;28;20543;-63
2022/02/20 14:01:51;;;;;;;11.18;3.88;;;;;;;;;;4970444;28;20427;-63
2022/02/20 14:04:42;;;;;;;9.38;3.80;;;;;;;;;;4970881;28;20329;-63
2022/02/20 14:07:26;;;;;;;8.30;3.47;;;;;;;;;;4970347;28;20071;-63
2022/02/20 14:09:55;;;;;;;9.07;4.20;;;;;;;;;;4971916;28;20425;-64
2022/02/20 14:12:23;;;;;;;9.52;3.45;;;;;;;;;;4969757;28;20314;-66
2022/02/20 14:15:15;;;;;;;8.65;3.50;;;;;;;;;;4970187;28;20033;-64
2022/02/20 14:17:53;;;;;;;10.73;3.65;;;;;;;;;;4970206;28;20433;-63
2022/02/20 14:20:48;;;;;;;10.60;4.18;;;;;;;;;;4969700;28;20456;-65
2022/02/20 14:23:19;;;;;;;7.20;3.83;;;;;;;;;;4963268;28;20479;-63
2022/02/20 14:25:55;;;;;;;10.73;4.45;;;;;;;;;;4970008;28;20102;-63
2022/02/20 14:28:24;;;;;;;17.85;6.00;;;;;;;;;;4970242;28;20487;-63
2022/02/20 14:30:54;;;;;;;15.48;4.47;;;;;;;;;;4969777;28;20409;-64
2022/02/20 14:33:20;;;;;;;15.15;5.45;;;;;;;;;;4968261;28;20471;-64
2022/02/20 14:35:49;;;;;;;12.80;5.55;;;;;;;;;;4969578;28;20057;-63